sensor_id;sensor_type;location;lat;lon;timestamp;pressure;altitude;pressure_sealevel;temperature;humidity
15750;BME280;7976;52.526;13.326;2022-07-23T00:01:30;101259.72;;;20.07;71.02
15750;BME280;7976;52.526;13.326;2022-07-23T00:03:58;101259.94;;;20.04;71.22
15750;BME280;7976;52.526;13.326;2022-07-23T00:06:25;101252.91;;;20.03;71.08
15750;BME280;7976;52.526;13.326;2022-07-23T00:08:53;101242.28;;;20.03;71.14
15750;BME280;7976;52.526;13.326;2022-07-23T00:11:20;101244.84;;;20.04;71.23
15750;BME280;7976;52.526;13.326;2022-07-23T00:13:48;101241.31;;;20.04;71.42
15750;BME280;7976;52.526;13.326;2022-07-23T00:16:15;101236.22;;;20.01;71.20
15750;BME280;7976;52.526;13.326;2022-07-23T00:18:41;101238.13;;;19.98;70.88
15750;BME280;7976;52.526;13.326;2022-07-23T00:21:08;101242.47;;;19.99;70.73
15750;BME280;7976;52.526;13.326;2022-07-23T00:23:35;101237.91;;;20.02;70.56
15750;BME280;7976;52.526;13.326;2022-07-23T00:26:04;101231.66;;;20.03;70.64
15750;BME280;7976;52.526;13.326;2022-07-23T00:28:33;101229.19;;;19.99;70.48
15750;BME280;7976;52.526;13.326;2022-07-23T00:31:00;101228.47;;;19.98;70.00
15750;BME280;7976;52.526;13.326;2022-07-23T00:33:27;101232.28;;;19.93;70.26
15750;BME280;7976;52.526;13.326;2022-07-23T00:35:53;101223.53;;;19.91;70.54
15750;BME280;7976;52.526;13.326;2022-07-23T00:38:20;101223.75;;;19.88;70.50
15750;BME280;7976;52.526;13.326;2022-07-23T00:40:47;101240.84;;;19.84;70.73
15750;BME280;7976;52.526;13.326;2022-07-23T00:43:15;101234.88;;;19.81;70.73
15750;BME280;7976;52.526;13.326;2022-07-23T00:45:42;101237.75;;;19.78;71.07
15750;BME280;7976;52.526;13.326;2022-07-23T00:48:09;101232.66;;;19.75;70.87
15750;BME280;7976;52.526;13.326;2022-07-23T00:50:36;101230.09;;;19.73;70.97
15750;BME280;7976;52.526;13.326;2022-07-23T00:53:04;101233.91;;;19.69;71.08
15750;BME280;7976;52.526;13.326;2022-07-23T00:55:32;101237.75;;;19.65;70.70
15750;BME280;7976;52.526;13.326;2022-07-23T00:57:59;101241.44;;;19.63;70.76
15750;BME280;7976;52.526;13.326;2022-07-23T01:00:29;101247.94;;;19.59;70.97
15750;BME280;7976;52.526;13.326;2022-07-23T01:02:56;101248.22;;;19.54;71.82
15750;BME280;7976;52.526;13.326;2022-07-23T01:05:23;101246.84;;;19.49;71.67
15750;BME280;7976;52.526;13.326;2022-07-23T01:07:51;101243.81;;;19.41;71.92
15750;BME280;7976;52.526;13.326;2022-07-23T01:10:18;101243.06;;;19.39;72.25
15750;BME280;7976;52.526;13.326;2022-07-23T01:13:03;101236.16;;;19.36;72.18
15750;BME280;7976;52.526;13.326;2022-07-23T01:15:32;101245.06;;;19.35;72.47
15750;BME280;7976;52.526;13.326;2022-07-23T01:18:00;101239.97;;;19.32;72.48
15750;BME280;7976;52.526;13.326;2022-07-23T01:20:27;101230.28;;;19.31;72.52
15750;BME280;7976;52.526;13.326;2022-07-23T01:22:56;101226.94;;;19.28;72.88
15750;BME280;7976;52.526;13.326;2022-07-23T01:25:24;101225.47;;;19.24;72.98
15750;BME280;7976;52.526;13.326;2022-07-23T01:28:01;101228.38;;;19.19;73.20
15750;BME280;7976;52.526;13.326;2022-07-23T01:30:28;101227.56;;;19.19;73.42
15750;BME280;7976;52.526;13.326;2022-07-23T01:32:57;101218.19;;;19.13;73.29
15750;BME280;7976;52.526;13.326;2022-07-23T01:35:24;101220.38;;;19.07;73.54
15750;BME280;7976;52.526;13.326;2022-07-23T01:37:53;101213.56;;;19.03;74.04
15750;BME280;7976;52.526;13.326;2022-07-23T01:40:22;101208.56;;;18.98;73.74
15750;BME280;7976;52.526;13.326;2022-07-23T01:42:50;101210.25;;;18.99;74.10
15750;BME280;7976;52.526;13.326;2022-07-23T01:45:18;101211.13;;;19.00;74.28
15750;BME280;7976;52.526;13.326;2022-07-23T01:47:48;101214.63;;;19.00;74.47
15750;BME280;7976;52.526;13.326;2022-07-23T01:50:16;101219.19;;;18.98;74.50
15750;BME280;7976;52.526;13.326;2022-07-23T01:53:03;101214.06;;;18.95;74.52
15750;BME280;7976;52.526;13.326;2022-07-23T01:55:31;101210.00;;;18.90;74.51
15750;BME280;7976;52.526;13.326;2022-07-23T01:57:58;101214.75;;;18.85;74.76
15750;BME280;7976;52.526;13.326;2022-07-23T02:00:28;101213.16;;;18.82;74.55
15750;BME280;7976;52.526;13.326;2022-07-23T02:02:55;101210.66;;;18.79;75.47
15750;BME280;7976;52.526;13.326;2022-07-23T02:05:23;101199.13;;;18.80;75.45
15750;BME280;7976;52.526;13.326;2022-07-23T02:07:50;101205.47;;;18.77;75.39
15750;BME280;7976;52.526;13.326;2022-07-23T02:10:18;101194.03;;;18.77;75.61
15750;BME280;7976;52.526;13.326;2022-07-23T02:12:46;101197.81;;;18.73;75.75
15750;BME280;7976;52.526;13.326;2022-07-23T02:15:13;101199.69;;;18.71;75.39
15750;BME280;7976;52.526;13.326;2022-07-23T02:17:40;101204.34;;;18.67;75.87
15750;BME280;7976;52.526;13.326;2022-07-23T02:20:10;101196.50;;;18.66;75.81
15750;BME280;7976;52.526;13.326;2022-07-23T02:22:37;101189.50;;;18.65;76.15
15750;BME280;7976;52.526;13.326;2022-07-23T02:25:07;101194.81;;;18.65;76.27
15750;BME280;7976;52.526;13.326;2022-07-23T02:27:35;101199.25;;;18.64;75.82
15750;BME280;7976;52.526;13.326;2022-07-23T02:30:07;101206.44;;;18.62;76.05
15750;BME280;7976;52.526;13.326;2022-07-23T02:32:35;101206.44;;;18.62;76.33
15750;BME280;7976;52.526;13.326;2022-07-23T02:35:03;101202.28;;;18.58;76.04
15750;BME280;7976;52.526;13.326;2022-07-23T02:37:30;101207.19;;;18.50;76.43
15750;BME280;7976;52.526;13.326;2022-07-23T02:39:57;101203.16;;;18.45;76.92
15750;BME280;7976;52.526;13.326;2022-07-23T02:42:24;101212.78;;;18.46;76.88
15750;BME280;7976;52.526;13.326;2022-07-23T02:44:51;101210.16;;;18.46;76.56
15750;BME280;7976;52.526;13.326;2022-07-23T02:47:20;101219.25;;;18.42;76.53
15750;BME280;7976;52.526;13.326;2022-07-23T02:49:46;101213.94;;;18.42;76.63
15750;BME280;7976;52.526;13.326;2022-07-23T02:52:13;101215.66;;;18.43;76.42
15750;BME280;7976;52.526;13.326;2022-07-23T02:54:41;101217.81;;;18.50;76.77
15750;BME280;7976;52.526;13.326;2022-07-23T02:57:10;101225.28;;;18.58;76.71
15750;BME280;7976;52.526;13.326;2022-07-23T02:59:37;101212.59;;;18.63;76.04
15750;BME280;7976;52.526;13.326;2022-07-23T03:02:04;101206.34;;;18.64;75.72
15750;BME280;7976;52.526;13.326;2022-07-23T03:04:32;101211.84;;;18.61;75.84
15750;BME280;7976;52.526;13.326;2022-07-23T03:06:59;101207.84;;;18.54;75.89
15750;BME280;7976;52.526;13.326;2022-07-23T03:09:26;101209.03;;;18.50;75.99
15750;BME280;7976;52.526;13.326;2022-07-23T03:11:52;101214.41;;;18.48;76.04
15750;BME280;7976;52.526;13.326;2022-07-23T03:14:19;101204.66;;;18.49;75.75
15750;BME280;7976;52.526;13.326;2022-07-23T03:16:46;101219.44;;;18.53;75.76
15750;BME280;7976;52.526;13.326;2022-07-23T03:19:15;101215.56;;;18.58;76.09
15750;BME280;7976;52.526;13.326;2022-07-23T03:21:43;101214.38;;;18.62;75.49
15750;BME280;7976;52.526;13.326;2022-07-23T03:24:11;101226.25;;;18.57;75.20
15750;BME280;7976;52.526;13.326;2022-07-23T03:26:38;101228.59;;;18.47;75.28
15750;BME280;7976;52.526;13.326;2022-07-23T03:29:05;101224.00;;;18.35;74.79
15750;BME280;7976;52.526;13.326;2022-07-23T03:31:32;101229.03;;;18.26;74.37
15750;BME280;7976;52.526;13.326;2022-07-23T03:33:59;101240.41;;;18.28;74.00
15750;BME280;7976;52.526;13.326;2022-07-23T03:36:26;101229.72;;;18.29;73.93
15750;BME280;7976;52.526;13.326;2022-07-23T03:38:56;101245.06;;;18.38;73.28
15750;BME280;7976;52.526;13.326;2022-07-23T03:41:24;101252.47;;;18.47;72.64
15750;BME280;7976;52.526;13.326;2022-07-23T03:43:51;101251.16;;;18.54;72.47
15750;BME280;7976;52.526;13.326;2022-07-23T03:46:17;101255.13;;;18.61;71.47
15750;BME280;7976;52.526;13.326;2022-07-23T03:48:44;101246.97;;;18.64;71.47
15750;BME280;7976;52.526;13.326;2022-07-23T03:51:11;101257.00;;;18.59;70.65
15750;BME280;7976;52.526;13.326;2022-07-23T03:53:38;101268.69;;;18.57;70.60
15750;BME280;7976;52.526;13.326;2022-07-23T03:56:06;101273.41;;;18.66;70.51
15750;BME280;7976;52.526;13.326;2022-07-23T03:58:33;101271.22;;;18.72;69.49
15750;BME280;7976;52.526;13.326;2022-07-23T04:01:00;101268.66;;;18.71;69.30
15750;BME280;7976;52.526;13.326;2022-07-23T04:03:27;101257.00;;;18.59;68.69
15750;BME280;7976;52.526;13.326;2022-07-23T04:05:54;101260.72;;;18.57;69.16
15750;BME280;7976;52.526;13.326;2022-07-23T04:08:21;101257.13;;;18.58;68.63
15750;BME280;7976;52.526;13.326;2022-07-23T04:10:51;101236.09;;;18.55;68.25
15750;BME280;7976;52.526;13.326;2022-07-23T04:13:19;101223.97;;;18.51;68.15
15750;BME280;7976;52.526;13.326;2022-07-23T04:15:47;101224.63;;;18.40;68.69
15750;BME280;7976;52.526;13.326;2022-07-23T04:18:15;101228.28;;;18.38;68.68
15750;BME280;7976;52.526;13.326;2022-07-23T04:20:51;101228.13;;;18.41;68.70
15750;BME280;7976;52.526;13.326;2022-07-23T04:23:19;101245.00;;;18.40;68.87
15750;BME280;7976;52.526;13.326;2022-07-23T04:25:46;101236.19;;;18.39;69.00
15750;BME280;7976;52.526;13.326;2022-07-23T04:28:13;101232.22;;;18.46;69.01
15750;BME280;7976;52.526;13.326;2022-07-23T04:30:42;101212.78;;;18.46;68.79
15750;BME280;7976;52.526;13.326;2022-07-23T04:33:10;101187.56;;;18.39;69.39
15750;BME280;7976;52.526;13.326;2022-07-23T04:35:38;101212.91;;;18.01;72.71
15750;BME280;7976;52.526;13.326;2022-07-23T04:38:13;101239.06;;;17.47;77.10
15750;BME280;7976;52.526;13.326;2022-07-23T04:40:40;101258.97;;;17.08;80.07
15750;BME280;7976;52.526;13.326;2022-07-23T04:43:07;101275.91;;;16.88;82.75
15750;BME280;7976;52.526;13.326;2022-07-23T04:45:41;101268.03;;;16.71;84.54
15750;BME280;7976;52.526;13.326;2022-07-23T04:48:08;101257.28;;;16.59;86.00
15750;BME280;7976;52.526;13.326;2022-07-23T04:50:35;101261.25;;;16.50;87.30
15750;BME280;7976;52.526;13.326;2022-07-23T04:53:04;101279.75;;;16.33;87.84
15750;BME280;7976;52.526;13.326;2022-07-23T04:55:31;101283.19;;;16.18;88.42
15750;BME280;7976;52.526;13.326;2022-07-23T04:57:58;101272.16;;;16.10;89.24
15750;BME280;7976;52.526;13.326;2022-07-23T05:00:25;101273.25;;;16.06;89.73
15750;BME280;7976;52.526;13.326;2022-07-23T05:02:53;101277.78;;;16.04;90.39
15750;BME280;7976;52.526;13.326;2022-07-23T05:05:20;101265.56;;;16.01;90.65
15750;BME280;7976;52.526;13.326;2022-07-23T05:07:46;101251.66;;;15.98;90.52
15750;BME280;7976;52.526;13.326;2022-07-23T05:10:14;101245.59;;;15.96;91.13
15750;BME280;7976;52.526;13.326;2022-07-23T05:12:40;101249.34;;;15.92;91.51
15750;BME280;7976;52.526;13.326;2022-07-23T05:15:08;101247.06;;;15.84;91.98
15750;BME280;7976;52.526;13.326;2022-07-23T05:17:34;101255.84;;;15.85;92.93
15750;BME280;7976;52.526;13.326;2022-07-23T05:20:07;101247.63;;;15.91;93.32
15750;BME280;7976;52.526;13.326;2022-07-23T05:22:34;101250.88;;;15.96;93.33
15750;BME280;7976;52.526;13.326;2022-07-23T05:25:01;101252.28;;;16.03;93.61
15750;BME280;7976;52.526;13.326;2022-07-23T05:27:28;101246.81;;;16.06;93.42
15750;BME280;7976;52.526;13.326;2022-07-23T05:29:55;101244.06;;;16.09;93.48
15750;BME280;7976;52.526;13.326;2022-07-23T05:32:22;101236.06;;;16.10;93.47
15750;BME280;7976;52.526;13.326;2022-07-23T05:34:57;101250.88;;;16.13;93.84
15750;BME280;7976;52.526;13.326;2022-07-23T05:37:25;101249.00;;;16.15;93.56
15750;BME280;7976;52.526;13.326;2022-07-23T05:39:52;101253.50;;;16.13;93.17
15750;BME280;7976;52.526;13.326;2022-07-23T05:42:19;101256.22;;;16.11;93.40
15750;BME280;7976;52.526;13.326;2022-07-23T05:44:46;101261.34;;;16.14;93.67
15750;BME280;7976;52.526;13.326;2022-07-23T05:47:13;101260.19;;;16.20;93.55
15750;BME280;7976;52.526;13.326;2022-07-23T05:49:40;101263.59;;;16.22;93.41
15750;BME280;7976;52.526;13.326;2022-07-23T05:52:26;101262.59;;;16.24;93.28
15750;BME280;7976;52.526;13.326;2022-07-23T05:55:24;101288.28;;;16.38;93.78
15750;BME280;7976;52.526;13.326;2022-07-23T05:57:54;101279.06;;;16.47;93.86
15750;BME280;7976;52.526;13.326;2022-07-23T06:00:21;101282.84;;;16.58;93.93
15750;BME280;7976;52.526;13.326;2022-07-23T06:02:48;101292.25;;;16.64;93.86
15750;BME280;7976;52.526;13.326;2022-07-23T06:05:16;101295.75;;;16.64;93.89
15750;BME280;7976;52.526;13.326;2022-07-23T06:07:46;101282.38;;;16.67;94.03
15750;BME280;7976;52.526;13.326;2022-07-23T06:10:14;101271.63;;;16.70;94.32
15750;BME280;7976;52.526;13.326;2022-07-23T06:12:41;101262.06;;;16.68;94.25
15750;BME280;7976;52.526;13.326;2022-07-23T06:15:09;101248.00;;;16.67;94.32
15750;BME280;7976;52.526;13.326;2022-07-23T06:17:37;101234.00;;;16.65;94.58
15750;BME280;7976;52.526;13.326;2022-07-23T06:20:06;101246.44;;;16.63;94.65
15750;BME280;7976;52.526;13.326;2022-07-23T06:22:36;101243.53;;;16.52;94.39
15750;BME280;7976;52.526;13.326;2022-07-23T06:25:07;101262.47;;;16.43;94.54
15750;BME280;7976;52.526;13.326;2022-07-23T06:27:34;101260.09;;;16.39;94.56
15750;BME280;7976;52.526;13.326;2022-07-23T06:30:01;101262.72;;;16.39;94.83
15750;BME280;7976;52.526;13.326;2022-07-23T06:32:28;101259.13;;;16.40;95.30
15750;BME280;7976;52.526;13.326;2022-07-23T06:34:55;101254.63;;;16.42;95.65
15750;BME280;7976;52.526;13.326;2022-07-23T06:37:22;101242.13;;;16.45;96.17
15750;BME280;7976;52.526;13.326;2022-07-23T06:39:49;101234.19;;;16.45;95.94
15750;BME280;7976;52.526;13.326;2022-07-23T06:42:17;101247.25;;;16.48;96.07
15750;BME280;7976;52.526;13.326;2022-07-23T06:44:45;101246.97;;;16.54;95.75
15750;BME280;7976;52.526;13.326;2022-07-23T06:47:15;101237.91;;;16.58;95.46
15750;BME280;7976;52.526;13.326;2022-07-23T06:49:42;101219.22;;;16.61;95.88
15750;BME280;7976;52.526;13.326;2022-07-23T06:52:09;101219.09;;;16.64;95.99
15750;BME280;7976;52.526;13.326;2022-07-23T06:54:36;101222.66;;;16.63;95.94
15750;BME280;7976;52.526;13.326;2022-07-23T06:57:03;101217.19;;;16.66;96.43
15750;BME280;7976;52.526;13.326;2022-07-23T06:59:32;101222.94;;;16.74;96.49
15750;BME280;7976;52.526;13.326;2022-07-23T07:02:02;101221.66;;;16.81;96.52
15750;BME280;7976;52.526;13.326;2022-07-23T07:04:29;101221.31;;;16.87;96.33
15750;BME280;7976;52.526;13.326;2022-07-23T07:06:57;101224.47;;;16.94;96.10
15750;BME280;7976;52.526;13.326;2022-07-23T07:09:24;101254.44;;;16.94;96.10
15750;BME280;7976;52.526;13.326;2022-07-23T07:11:51;101264.06;;;16.95;95.30
15750;BME280;7976;52.526;13.326;2022-07-23T07:14:18;101262.97;;;16.99;95.25
15750;BME280;7976;52.526;13.326;2022-07-23T07:16:46;101278.66;;;17.02;95.49
15750;BME280;7976;52.526;13.326;2022-07-23T07:19:13;101276.78;;;17.04;95.69
15750;BME280;7976;52.526;13.326;2022-07-23T07:21:40;101280.94;;;17.08;96.13
15750;BME280;7976;52.526;13.326;2022-07-23T07:24:07;101280.88;;;17.10;96.13
15750;BME280;7976;52.526;13.326;2022-07-23T07:26:34;101286.84;;;17.13;96.41
15750;BME280;7976;52.526;13.326;2022-07-23T07:29:01;101281.72;;;17.10;96.20
15750;BME280;7976;52.526;13.326;2022-07-23T07:31:28;101281.63;;;17.12;96.34
15750;BME280;7976;52.526;13.326;2022-07-23T07:33:57;101276.09;;;17.16;96.43
15750;BME280;7976;52.526;13.326;2022-07-23T07:36:24;101270.66;;;17.19;96.36
15750;BME280;7976;52.526;13.326;2022-07-23T07:38:51;101277.47;;;17.23;96.44
15750;BME280;7976;52.526;13.326;2022-07-23T07:41:18;101270.28;;;17.25;95.96
15750;BME280;7976;52.526;13.326;2022-07-23T07:43:48;101272.75;;;17.28;95.57
15750;BME280;7976;52.526;13.326;2022-07-23T07:46:15;101261.75;;;17.36;95.40
15750;BME280;7976;52.526;13.326;2022-07-23T07:48:42;101264.13;;;17.40;95.01
15750;BME280;7976;52.526;13.326;2022-07-23T07:51:10;101256.19;;;17.40;94.96
15750;BME280;7976;52.526;13.326;2022-07-23T07:53:37;101242.88;;;17.42;94.67
15750;BME280;7976;52.526;13.326;2022-07-23T07:56:05;101239.06;;;17.47;94.65
15750;BME280;7976;52.526;13.326;2022-07-23T07:58:31;101241.25;;;17.55;94.25
15750;BME280;7976;52.526;13.326;2022-07-23T08:00:58;101243.28;;;17.66;94.34
15750;BME280;7976;52.526;13.326;2022-07-23T08:03:26;101241.72;;;17.77;94.33
15750;BME280;7976;52.526;13.326;2022-07-23T08:05:53;101251.78;;;17.86;93.97
15750;BME280;7976;52.526;13.326;2022-07-23T08:08:21;101255.31;;;18.01;93.47
15750;BME280;7976;52.526;13.326;2022-07-23T08:10:48;101258.75;;;18.17;92.92
15750;BME280;7976;52.526;13.326;2022-07-23T08:13:16;101255.53;;;18.26;92.37
15750;BME280;7976;52.526;13.326;2022-07-23T08:15:44;101252.59;;;18.30;91.53
15750;BME280;7976;52.526;13.326;2022-07-23T08:18:11;101246.84;;;18.38;91.19
15750;BME280;7976;52.526;13.326;2022-07-23T08:20:38;101248.22;;;18.45;89.88
15750;BME280;7976;52.526;13.326;2022-07-23T08:23:08;101247.25;;;18.46;88.62
15750;BME280;7976;52.526;13.326;2022-07-23T08:25:38;101242.22;;;18.55;88.22
15750;BME280;7976;52.526;13.326;2022-07-23T08:28:08;101244.13;;;18.67;87.21
15750;BME280;7976;52.526;13.326;2022-07-23T08:30:37;101260.97;;;18.81;86.75
15750;BME280;7976;52.526;13.326;2022-07-23T08:33:07;101247.59;;;18.96;85.93
15750;BME280;7976;52.526;13.326;2022-07-23T08:35:39;101249.56;;;19.07;85.01
15750;BME280;7976;52.526;13.326;2022-07-23T08:38:08;101249.19;;;19.13;83.81
15750;BME280;7976;52.526;13.326;2022-07-23T08:40:40;101250.25;;;19.10;82.62
15750;BME280;7976;52.526;13.326;2022-07-23T08:43:09;101248.50;;;19.09;81.79
15750;BME280;7976;52.526;13.326;2022-07-23T08:45:38;101252.78;;;19.12;81.34
15750;BME280;7976;52.526;13.326;2022-07-23T08:48:12;101250.34;;;19.09;80.72
15750;BME280;7976;52.526;13.326;2022-07-23T08:50:43;101253.81;;;19.09;80.66
15750;BME280;7976;52.526;13.326;2022-07-23T08:53:10;101252.53;;;19.02;79.79
15750;BME280;7976;52.526;13.326;2022-07-23T08:55:39;101247.78;;;19.07;79.94
15750;BME280;7976;52.526;13.326;2022-07-23T08:58:06;101240.94;;;19.17;79.82
15750;BME280;7976;52.526;13.326;2022-07-23T09:00:33;101235.97;;;19.25;79.41
15750;BME280;7976;52.526;13.326;2022-07-23T09:03:00;101225.72;;;19.33;78.69
15750;BME280;7976;52.526;13.326;2022-07-23T09:05:27;101236.38;;;19.46;77.80
15750;BME280;7976;52.526;13.326;2022-07-23T09:08:12;101250.22;;;19.51;77.19
15750;BME280;7976;52.526;13.326;2022-07-23T09:10:53;101257.91;;;19.55;77.30
15750;BME280;7976;52.526;13.326;2022-07-23T09:13:33;101261.00;;;19.62;76.52
15750;BME280;7976;52.526;13.326;2022-07-23T09:16:05;101258.88;;;19.67;76.39
15750;BME280;7976;52.526;13.326;2022-07-23T09:18:41;101253.25;;;19.71;76.44
15750;BME280;7976;52.526;13.326;2022-07-23T09:21:19;101250.28;;;19.76;76.31
15750;BME280;7976;52.526;13.326;2022-07-23T09:23:55;101257.66;;;19.85;76.33
15750;BME280;7976;52.526;13.326;2022-07-23T09:26:31;101263.84;;;19.98;76.39
15750;BME280;7976;52.526;13.326;2022-07-23T09:29:08;101271.53;;;20.03;75.73
15750;BME280;7976;52.526;13.326;2022-07-23T09:31:48;101273.31;;;20.15;75.12
15750;BME280;7976;52.526;13.326;2022-07-23T09:34:20;101269.03;;;20.39;75.57
15750;BME280;7976;52.526;13.326;2022-07-23T09:36:48;101281.03;;;20.57;75.40
15750;BME280;7976;52.526;13.326;2022-07-23T09:39:25;101288.59;;;20.75;75.43
15750;BME280;7976;52.526;13.326;2022-07-23T09:41:54;101280.38;;;20.91;75.15
15750;BME280;7976;52.526;13.326;2022-07-23T09:44:22;101276.44;;;20.96;74.54
15750;BME280;7976;52.526;13.326;2022-07-23T09:46:52;101277.94;;;20.88;73.49
15750;BME280;7976;52.526;13.326;2022-07-23T09:49:23;101281.25;;;20.79;73.37
15750;BME280;7976;52.526;13.326;2022-07-23T09:51:53;101274.94;;;20.80;72.59
15750;BME280;7976;52.526;13.326;2022-07-23T09:54:31;101268.25;;;20.87;72.10
15750;BME280;7976;52.526;13.326;2022-07-23T09:57:04;101280.59;;;20.88;71.36
15750;BME280;7976;52.526;13.326;2022-07-23T09:59:36;101284.88;;;21.03;70.29
15750;BME280;7976;52.526;13.326;2022-07-23T10:02:05;101284.94;;;21.14;70.13
15750;BME280;7976;52.526;13.326;2022-07-23T10:04:43;101288.00;;;21.21;69.80
15750;BME280;7976;52.526;13.326;2022-07-23T10:07:21;101297.59;;;21.23;69.87
15750;BME280;7976;52.526;13.326;2022-07-23T10:10:09;101296.28;;;21.29;70.04
15750;BME280;7976;52.526;13.326;2022-07-23T10:12:57;101286.47;;;21.29;70.09
15750;BME280;7976;52.526;13.326;2022-07-23T10:15:50;101284.16;;;21.25;69.62
15750;BME280;7976;52.526;13.326;2022-07-23T10:18:17;101295.03;;;21.22;69.98
15750;BME280;7976;52.526;13.326;2022-07-23T10:20:47;101290.16;;;21.15;70.23
15750;BME280;7976;52.526;13.326;2022-07-23T10:23:24;101293.22;;;21.22;69.58
15750;BME280;7976;52.526;13.326;2022-07-23T10:26:00;101289.16;;;21.29;69.31
15750;BME280;7976;52.526;13.326;2022-07-23T10:29:02;101292.28;;;21.23;68.96
15750;BME280;7976;52.526;13.326;2022-07-23T10:31:48;101295.59;;;21.14;69.16
15750;BME280;7976;52.526;13.326;2022-07-23T10:34:25;101296.03;;;21.08;69.56
15750;BME280;7976;52.526;13.326;2022-07-23T10:37:00;101292.34;;;20.98;69.15
15750;BME280;7976;52.526;13.326;2022-07-23T10:39:33;101293.78;;;21.02;69.40
15750;BME280;7976;52.526;13.326;2022-07-23T10:42:09;101293.22;;;21.22;69.13
15750;BME280;7976;52.526;13.326;2022-07-23T10:44:43;101296.47;;;21.38;68.12
15750;BME280;7976;52.526;13.326;2022-07-23T10:47:12;101293.88;;;21.49;68.14
15750;BME280;7976;52.526;13.326;2022-07-23T10:50:20;101294.03;;;21.59;67.57
15750;BME280;7976;52.526;13.326;2022-07-23T10:53:13;101299.94;;;21.75;66.82
15750;BME280;7976;52.526;13.326;2022-07-23T10:55:51;101302.84;;;21.95;65.78
15750;BME280;7976;52.526;13.326;2022-07-23T11:01:36;101294.72;;;22.31;64.47
15750;BME280;7976;52.526;13.326;2022-07-23T11:04:05;101298.63;;;22.50;64.73
15750;BME280;7976;52.526;13.326;2022-07-23T11:07:08;101298.44;;;22.75;63.57
15750;BME280;7976;52.526;13.326;2022-07-23T11:09:41;101294.78;;;22.76;63.33
15750;BME280;7976;52.526;13.326;2022-07-23T11:12:32;101292.13;;;22.76;63.11
15750;BME280;7976;52.526;13.326;2022-07-23T11:15:04;101292.50;;;22.82;62.40
15750;BME280;7976;52.526;13.326;2022-07-23T11:17:36;101289.19;;;23.01;62.30
15750;BME280;7976;52.526;13.326;2022-07-23T11:20:21;101286.75;;;23.20;62.15
15750;BME280;7976;52.526;13.326;2022-07-23T11:22:52;101283.13;;;23.21;61.44
15750;BME280;7976;52.526;13.326;2022-07-23T11:25:33;101282.66;;;23.16;61.05
15750;BME280;7976;52.526;13.326;2022-07-23T11:28:15;101287.75;;;22.97;61.04
15750;BME280;7976;52.526;13.326;2022-07-23T11:30:45;101290.66;;;22.83;61.07
15750;BME280;7976;52.526;13.326;2022-07-23T11:33:22;101285.22;;;22.73;60.90
15750;BME280;7976;52.526;13.326;2022-07-23T11:36:02;101276.34;;;22.73;61.59
15750;BME280;7976;52.526;13.326;2022-07-23T11:38:31;101279.25;;;22.70;61.05
15750;BME280;7976;52.526;13.326;2022-07-23T11:40:59;101277.69;;;22.67;61.46
15750;BME280;7976;52.526;13.326;2022-07-23T11:43:26;101283.63;;;22.71;61.23
15750;BME280;7976;52.526;13.326;2022-07-23T11:45:58;101278.41;;;22.69;61.39
15750;BME280;7976;52.526;13.326;2022-07-23T11:48:29;101272.25;;;22.69;61.02
15750;BME280;7976;52.526;13.326;2022-07-23T11:50:57;101276.97;;;22.76;60.51
15750;BME280;7976;52.526;13.326;2022-07-23T11:53:27;101281.56;;;22.96;60.93
15750;BME280;7976;52.526;13.326;2022-07-23T11:55:57;101272.56;;;23.08;60.61
15750;BME280;7976;52.526;13.326;2022-07-23T11:58:28;101267.47;;;23.27;60.99
15750;BME280;7976;52.526;13.326;2022-07-23T12:00:55;101261.97;;;23.51;60.56
15750;BME280;7976;52.526;13.326;2022-07-23T12:03:22;101266.53;;;23.60;59.63
15750;BME280;7976;52.526;13.326;2022-07-23T12:05:56;101261.81;;;23.52;59.56
15750;BME280;7976;52.526;13.326;2022-07-23T12:08:24;101268.03;;;23.42;58.94
15750;BME280;7976;52.526;13.326;2022-07-23T12:10:51;101263.31;;;23.45;59.00
15750;BME280;7976;52.526;13.326;2022-07-23T12:13:20;101273.47;;;23.51;58.88
15750;BME280;7976;52.526;13.326;2022-07-23T12:15:50;101269.94;;;23.62;57.75
15750;BME280;7976;52.526;13.326;2022-07-23T12:18:21;101266.59;;;23.70;57.98
15750;BME280;7976;52.526;13.326;2022-07-23T12:20:53;101268.31;;;23.71;57.90
15750;BME280;7976;52.526;13.326;2022-07-23T12:23:24;101271.38;;;23.66;57.65
15750;BME280;7976;52.526;13.326;2022-07-23T12:25:53;101267.72;;;23.67;57.04
15750;BME280;7976;52.526;13.326;2022-07-23T12:28:22;101264.56;;;23.62;57.08
15750;BME280;7976;52.526;13.326;2022-07-23T12:30:55;101264.72;;;23.61;57.88
15750;BME280;7976;52.526;13.326;2022-07-23T12:33:26;101262.38;;;23.67;57.35
15750;BME280;7976;52.526;13.326;2022-07-23T12:35:57;101267.19;;;23.73;56.84
15750;BME280;7976;52.526;13.326;2022-07-23T12:38:26;101261.47;;;23.78;56.84
15750;BME280;7976;52.526;13.326;2022-07-23T12:40:55;101263.03;;;23.80;56.70
15750;BME280;7976;52.526;13.326;2022-07-23T12:43:25;101266.56;;;23.81;56.76
15750;BME280;7976;52.526;13.326;2022-07-23T12:45:54;101270.31;;;23.89;56.34
15750;BME280;7976;52.526;13.326;2022-07-23T12:48:24;101268.34;;;23.91;56.67
15750;BME280;7976;52.526;13.326;2022-07-23T12:50:57;101269.56;;;23.87;56.02
15750;BME280;7976;52.526;13.326;2022-07-23T12:53:28;101265.69;;;23.91;55.82
15750;BME280;7976;52.526;13.326;2022-07-23T12:56:06;101261.28;;;23.90;55.79
15750;BME280;7976;52.526;13.326;2022-07-23T12:58:46;101261.09;;;23.82;55.81
15750;BME280;7976;52.526;13.326;2022-07-23T13:01:27;101260.44;;;23.90;55.83
15750;BME280;7976;52.526;13.326;2022-07-23T13:04:00;101253.94;;;24.03;55.41
15750;BME280;7976;52.526;13.326;2022-07-23T13:06:32;101264.16;;;24.09;55.64
15750;BME280;7976;52.526;13.326;2022-07-23T13:09:01;101259.28;;;24.03;55.78